Seacrest, Florida
Current Conditions -  °F | °C
As of 3:53 PM on Saturday 25 Oct 2014 (Local Time) from KECP Reporting Station
Clear Clear  
Wind Chill: 78°   Ceiling: Unl
Heat Index: 78°   Visibility: 10mi
Dew Point: 44°   Wind: 10mph
Humidity: 30%   Direction: 350°N
Pressure: 30"   Gusts: NA
Location:  30.3525°N, 85.9093°W
Report Text: KECP 252053Z 35009KT 10SM CLR 26/07 A3000 RMK AO2 SLP172 T02560067 56008 $
Loading
Personal Weather Stations






























Interactive Weather Map New forecast layout! Learn more

10-Day Weather Forecast

Advertisements
Track Severe Weather on mobile